createdAt,value
2022-07-29T00:01:49.312Z,54.70
2022-07-29T00:04:37.850Z,55.00
2022-07-29T00:07:23.644Z,54.90
2022-07-29T00:10:09.367Z,55.20
2022-07-29T00:12:54.680Z,55.20
2022-07-29T00:15:40.583Z,55.70
2022-07-29T00:18:25.992Z,55.90
2022-07-29T00:21:11.401Z,54.70
2022-07-29T00:23:56.780Z,54.70
2022-07-29T00:26:42.241Z,55.00
2022-07-29T00:29:35.351Z,54.80
2022-07-29T00:32:21.050Z,55.00
2022-07-29T00:35:25.736Z,55.40
2022-07-29T00:38:15.909Z,55.40
2022-07-29T00:41:01.219Z,55.40
2022-07-29T00:43:46.627Z,55.90
2022-07-29T00:46:31.924Z,55.80
2022-07-29T00:49:17.308Z,55.70
2022-07-29T00:52:09.134Z,55.50
2022-07-29T00:54:54.483Z,55.60
2022-07-29T00:57:41.122Z,55.80
2022-07-29T01:00:27.884Z,56.20
2022-07-29T01:03:13.283Z,56.80
2022-07-29T01:05:59.583Z,56.40
2022-07-29T01:08:46.512Z,56.90
2022-07-29T01:11:32.260Z,57.40
2022-07-29T01:14:18.537Z,57.40
2022-07-29T01:17:14.827Z,57.50
2022-07-29T01:20:13.596Z,57.30
2022-07-29T01:23:07.967Z,57.70
2022-07-29T01:26:20.613Z,57.60
2022-07-29T01:29:19.808Z,57.30
2022-07-29T01:32:08.833Z,58.10
2022-07-29T01:35:10.820Z,57.80
2022-07-29T01:38:09.215Z,57.70
2022-07-29T01:41:01.252Z,58.20
2022-07-29T01:44:03.662Z,58.00
2022-07-29T01:46:54.461Z,57.40
2022-07-29T01:49:44.166Z,58.30
2022-07-29T01:52:37.345Z,58.90
2022-07-29T01:55:29.176Z,57.50
2022-07-29T01:58:15.147Z,58.10
2022-07-29T02:01:01.442Z,58.10
2022-07-29T02:03:48.428Z,57.80
2022-07-29T02:06:35.869Z,56.90
2022-07-29T02:09:23.192Z,57.20
2022-07-29T02:12:09.908Z,57.20
2022-07-29T02:14:57.222Z,57.60
2022-07-29T02:17:47.856Z,57.80
2022-07-29T02:20:33.781Z,58.10
2022-07-29T02:23:23.926Z,58.30
2022-07-29T02:26:10.235Z,58.70
2022-07-29T02:28:57.358Z,58.90
2022-07-29T02:31:44.686Z,58.40
2022-07-29T02:34:30.978Z,58.70
2022-07-29T02:37:18.818Z,59.10
2022-07-29T02:40:06.882Z,59.30
2022-07-29T02:42:52.151Z,59.00
2022-07-29T02:45:37.773Z,58.80
2022-07-29T02:48:42.419Z,58.30
2022-07-29T02:51:44.867Z,58.90
2022-07-29T02:54:50.080Z,58.50
2022-07-29T02:57:54.020Z,57.90
2022-07-29T03:00:42.332Z,59.10
2022-07-29T03:03:32.311Z,58.40
2022-07-29T03:06:28.094Z,59.20
2022-07-29T03:09:16.969Z,59.70
2022-07-29T03:12:02.750Z,59.70
2022-07-29T03:14:49.644Z,59.40
2022-07-29T03:17:35.063Z,59.00
2022-07-29T03:20:21.330Z,59.50
2022-07-29T03:23:06.332Z,60.40
2022-07-29T03:25:51.991Z,59.80
2022-07-29T03:28:37.166Z,60.10
2022-07-29T03:31:25.059Z,59.90
2022-07-29T03:34:10.366Z,60.70
2022-07-29T03:36:55.602Z,59.80
2022-07-29T03:39:44.001Z,59.30
2022-07-29T03:42:34.487Z,59.40
2022-07-29T03:45:21.308Z,60.00
2022-07-29T03:48:10.651Z,59.70
2022-07-29T03:50:56.240Z,60.00
2022-07-29T03:53:42.027Z,60.70
2022-07-29T03:56:28.941Z,60.90
2022-07-29T03:59:16.108Z,60.40
2022-07-29T04:02:04.148Z,60.70
2022-07-29T04:04:49.485Z,60.60
2022-07-29T04:07:34.720Z,60.10
2022-07-29T04:10:26.895Z,60.70
2022-07-29T04:13:15.856Z,60.60
2022-07-29T04:16:01.347Z,61.10
2022-07-29T04:18:46.850Z,61.30
2022-07-29T04:21:32.263Z,61.30
2022-07-29T04:24:18.347Z,61.20
2022-07-29T04:27:03.839Z,61.10
2022-07-29T04:29:56.939Z,61.80
2022-07-29T04:32:42.932Z,60.50
2022-07-29T04:35:29.048Z,60.20
2022-07-29T04:38:15.924Z,60.00
2022-07-29T04:41:02.790Z,59.10
2022-07-29T04:43:48.447Z,58.50
2022-07-29T04:46:34.281Z,58.70
2022-07-29T04:49:19.796Z,58.50
2022-07-29T04:52:05.768Z,58.80
2022-07-29T04:54:50.925Z,58.70
2022-07-29T04:57:36.197Z,58.70
2022-07-29T05:00:21.605Z,60.10
2022-07-29T05:03:13.536Z,60.90
2022-07-29T05:05:58.809Z,59.70
2022-07-29T05:08:44.097Z,60.60
2022-07-29T05:11:30.549Z,61.70
2022-07-29T05:14:16.183Z,61.60
2022-07-29T05:17:01.753Z,59.50
2022-07-29T05:19:47.166Z,60.10
2022-07-29T05:22:32.646Z,60.90
2022-07-29T05:25:17.987Z,61.50
2022-07-29T05:28:03.235Z,61.00
2022-07-29T05:30:49.361Z,60.90
2022-07-29T05:33:37.104Z,60.60
2022-07-29T05:36:22.712Z,60.30
2022-07-29T05:39:08.264Z,61.00
2022-07-29T05:41:53.616Z,60.80
2022-07-29T05:44:40.129Z,60.30
2022-07-29T05:47:25.717Z,60.00
2022-07-29T05:50:10.784Z,59.70
2022-07-29T05:52:56.295Z,59.30
2022-07-29T05:55:41.565Z,59.00
2022-07-29T05:58:26.874Z,61.00
2022-07-29T06:01:12.456Z,60.80
2022-07-29T06:04:00.742Z,61.10
2022-07-29T06:06:46.607Z,61.30
2022-07-29T06:09:31.679Z,61.70
2022-07-29T06:12:17.014Z,61.70
2022-07-29T06:15:02.441Z,58.80
2022-07-29T06:18:00.766Z,60.30
2022-07-29T06:20:47.743Z,58.60
2022-07-29T06:23:32.949Z,57.70
2022-07-29T06:26:18.431Z,57.50
2022-07-29T06:29:16.737Z,57.20
2022-07-29T06:32:03.138Z,57.00
2022-07-29T06:34:48.867Z,56.50
2022-07-29T06:37:34.200Z,56.50
2022-07-29T06:40:40.307Z,56.10
2022-07-29T06:43:26.385Z,55.90
2022-07-29T06:46:14.382Z,56.00
2022-07-29T06:48:59.736Z,55.60
2022-07-29T06:51:45.221Z,55.30
2022-07-29T06:54:30.643Z,54.80
2022-07-29T06:57:16.056Z,54.70
2022-07-29T07:00:01.550Z,54.90
2022-07-29T07:02:46.906Z,55.40
2022-07-29T07:05:32.817Z,55.10
2022-07-29T07:08:18.426Z,55.50
2022-07-29T07:11:04.943Z,55.60
2022-07-29T07:13:50.416Z,55.20
2022-07-29T07:16:35.942Z,55.80
2022-07-29T07:19:21.372Z,56.10
2022-07-29T07:22:06.498Z,55.60
2022-07-29T07:24:52.047Z,55.90
2022-07-29T07:27:38.129Z,56.30
2022-07-29T07:30:23.774Z,55.90
2022-07-29T07:33:09.101Z,55.70
2022-07-29T07:35:54.695Z,55.20
2022-07-29T07:38:39.990Z,55.40
2022-07-29T07:41:25.438Z,56.00
2022-07-29T07:44:15.860Z,56.10
2022-07-29T07:47:03.904Z,56.50
2022-07-29T07:49:54.323Z,56.00
2022-07-29T07:52:55.423Z,55.80
2022-07-29T07:56:08.957Z,56.30
2022-07-29T07:58:47.904Z,55.60
2022-07-29T08:01:47.681Z,55.70
2022-07-29T08:04:41.295Z,55.60
2022-07-29T08:07:26.363Z,55.10
2022-07-29T08:10:11.944Z,55.00
2022-07-29T08:12:57.126Z,55.80
2022-07-29T08:15:43.957Z,55.60
2022-07-29T08:18:31.364Z,55.70
2022-07-29T08:21:17.361Z,55.20
2022-07-29T08:24:22.517Z,54.80
2022-07-29T08:27:26.942Z,54.60
2022-07-29T08:30:14.115Z,54.60
2022-07-29T08:33:00.341Z,54.30
2022-07-29T08:35:46.663Z,54.50
2022-07-29T08:38:31.916Z,54.40
2022-07-29T08:41:19.811Z,54.70
2022-07-29T08:44:05.142Z,54.40
2022-07-29T08:46:51.495Z,54.20
2022-07-29T08:49:38.385Z,54.60
2022-07-29T08:52:26.760Z,54.90
2022-07-29T08:55:11.997Z,55.10
2022-07-29T08:57:58.411Z,55.30
2022-07-29T09:00:50.547Z,55.80
2022-07-29T09:03:39.892Z,54.90
2022-07-29T09:06:28.825Z,54.80
2022-07-29T09:09:15.078Z,54.20
2022-07-29T09:12:00.955Z,54.60
2022-07-29T09:14:46.392Z,54.90
2022-07-29T09:17:50.080Z,54.50
2022-07-29T09:20:53.759Z,54.30
2022-07-29T09:23:40.657Z,54.00
2022-07-29T09:26:30.750Z,54.20
2022-07-29T09:29:20.928Z,54.60
2022-07-29T09:32:10.344Z,54.60
2022-07-29T09:35:15.307Z,54.80
2022-07-29T09:38:11.561Z,55.10
2022-07-29T09:41:05.378Z,53.70
2022-07-29T09:43:58.977Z,54.10
2022-07-29T09:47:13.844Z,54.50
2022-07-29T09:50:00.912Z,55.70
2022-07-29T09:52:51.941Z,54.70
2022-07-29T09:55:53.187Z,55.50
2022-07-29T09:58:38.418Z,54.30
2022-07-29T10:01:30.028Z,54.40
2022-07-29T10:04:15.547Z,53.90
2022-07-29T10:07:05.102Z,54.20
2022-07-29T10:09:55.283Z,53.60
2022-07-29T10:12:51.432Z,54.10
2022-07-29T10:15:41.615Z,54.30
2022-07-29T10:18:26.685Z,53.30
2022-07-29T10:21:22.511Z,53.40
2022-07-29T10:24:19.550Z,53.10
2022-07-29T10:27:06.816Z,53.80
2022-07-29T10:29:51.844Z,53.80
2022-07-29T10:33:12.351Z,53.40
2022-07-29T10:36:19.406Z,53.30
2022-07-29T10:39:25.560Z,53.70
2022-07-29T10:42:29.408Z,53.70
2022-07-29T10:45:18.712Z,54.00
2022-07-29T10:48:07.934Z,53.70
2022-07-29T10:54:43.680Z,52.20
2022-07-29T10:57:52.490Z,52.50
2022-07-29T11:00:37.458Z,51.50
2022-07-29T11:03:49.211Z,50.60
2022-07-29T11:07:06.151Z,50.40
2022-07-29T11:10:13.849Z,51.10
2022-07-29T11:12:59.461Z,50.30
2022-07-29T11:15:58.347Z,50.70
2022-07-29T11:19:13.377Z,50.80
2022-07-29T11:21:59.337Z,50.30
2022-07-29T11:24:49.319Z,49.80
2022-07-29T11:27:40.513Z,49.10
2022-07-29T11:30:53.306Z,49.50
2022-07-29T11:33:55.989Z,48.30
2022-07-29T11:37:12.481Z,48.60
2022-07-29T11:40:01.901Z,49.00
2022-07-29T11:42:51.962Z,48.30
2022-07-29T11:45:48.140Z,47.60
2022-07-29T11:48:34.758Z,47.20
2022-07-29T11:51:21.512Z,47.10
2022-07-29T11:54:27.877Z,47.40
2022-07-29T11:57:13.780Z,48.00
2022-07-29T12:00:09.468Z,47.60
2022-07-29T12:03:00.061Z,47.40
2022-07-29T12:05:48.267Z,47.10
2022-07-29T12:08:43.304Z,46.70
2022-07-29T12:11:29.780Z,46.30
2022-07-29T12:14:31.510Z,46.80
2022-07-29T12:17:26.739Z,46.90
2022-07-29T12:20:24.587Z,47.40
2022-07-29T12:23:12.999Z,47.20
2022-07-29T12:25:59.987Z,47.70
2022-07-29T12:28:47.052Z,48.60
2022-07-29T12:31:43.379Z,49.90
2022-07-29T12:34:31.117Z,51.40
2022-07-29T12:37:17.321Z,52.80
2022-07-29T12:40:04.130Z,54.20
2022-07-29T12:43:13.075Z,55.20
2022-07-29T12:45:58.841Z,55.70
2022-07-29T12:48:44.821Z,57.60
2022-07-29T12:51:34.371Z,61.90
2022-07-29T12:54:19.607Z,62.40
2022-07-29T12:57:05.172Z,64.60
2022-07-29T13:00:06.548Z,66.10
2022-07-29T13:02:59.682Z,67.40
2022-07-29T13:05:49.336Z,68.50
2022-07-29T13:08:34.827Z,70.90
2022-07-29T13:11:48.190Z,71.50
2022-07-29T13:14:39.989Z,71.30
2022-07-29T13:17:28.261Z,72.40
2022-07-29T13:20:17.984Z,74.60
2022-07-29T13:23:03.292Z,76.30
2022-07-29T13:25:49.137Z,76.50
2022-07-29T13:28:35.172Z,73.90
2022-07-29T13:31:20.560Z,75.40
2022-07-29T13:34:05.903Z,75.70
2022-07-29T13:36:51.755Z,74.40
2022-07-29T13:39:38.297Z,73.90
2022-07-29T13:42:26.234Z,74.40
2022-07-29T13:45:24.505Z,74.60
2022-07-29T13:48:14.602Z,76.40
2022-07-29T13:51:00.137Z,74.80
2022-07-29T13:53:45.577Z,74.70
2022-07-29T13:56:31.210Z,74.80
2022-07-29T13:59:16.760Z,75.80
2022-07-29T14:02:02.311Z,74.90
2022-07-29T14:04:47.949Z,73.80
2022-07-29T14:07:33.261Z,72.50
2022-07-29T14:10:20.236Z,72.10
2022-07-29T14:13:05.709Z,71.50
2022-07-29T14:16:09.927Z,71.40
2022-07-29T14:18:55.698Z,71.50
2022-07-29T14:21:40.814Z,71.90
2022-07-29T14:24:26.572Z,71.00
2022-07-29T14:27:12.478Z,70.20
2022-07-29T14:29:59.950Z,70.60
2022-07-29T14:32:45.408Z,70.20
2022-07-29T14:35:30.909Z,70.10
2022-07-29T14:38:16.206Z,69.40
2022-07-29T14:41:01.832Z,69.40
2022-07-29T14:43:48.526Z,69.40
2022-07-29T14:46:33.995Z,67.70
2022-07-29T14:49:19.643Z,67.10
2022-07-29T14:52:05.833Z,66.20
2022-07-29T14:54:51.056Z,66.20
2022-07-29T14:57:36.320Z,68.10
2022-07-29T15:00:21.906Z,68.00
2022-07-29T15:03:11.092Z,68.50
2022-07-29T15:05:56.752Z,68.70
2022-07-29T15:08:42.546Z,68.50
2022-07-29T15:11:27.887Z,69.30
2022-07-29T15:14:13.640Z,69.60
2022-07-29T15:16:59.438Z,70.20
2022-07-29T15:19:46.175Z,69.00
2022-07-29T15:22:31.660Z,68.70
2022-07-29T15:25:17.276Z,67.70
2022-07-29T15:28:03.886Z,67.10
2022-07-29T15:30:49.311Z,68.10
2022-07-29T15:33:34.769Z,68.00
2022-07-29T15:36:50.293Z,67.70
2022-07-29T15:39:25.477Z,68.40
2022-07-29T15:42:10.900Z,68.80
2022-07-29T15:44:56.905Z,69.40
2022-07-29T15:47:42.056Z,69.40
2022-07-29T15:50:27.323Z,69.90
2022-07-29T15:53:12.716Z,70.40
2022-07-29T15:55:58.352Z,70.90
2022-07-29T15:58:43.788Z,71.10
2022-07-29T16:01:29.504Z,71.80
2022-07-29T16:04:15.420Z,72.20
2022-07-29T16:07:01.638Z,72.30
2022-07-29T16:09:52.524Z,73.20
2022-07-29T16:12:38.236Z,73.10
2022-07-29T16:15:23.651Z,72.10
2022-07-29T16:18:10.222Z,70.50
2022-07-29T16:20:55.635Z,72.50
2022-07-29T16:23:41.454Z,73.70
2022-07-29T16:26:27.394Z,73.90
2022-07-29T16:29:12.829Z,75.90
2022-07-29T16:31:58.601Z,77.30
2022-07-29T16:34:43.877Z,78.20
2022-07-29T16:37:33.547Z,78.10
2022-07-29T16:40:18.917Z,79.20
2022-07-29T16:43:04.240Z,79.50
2022-07-29T16:45:51.662Z,79.10
2022-07-29T16:48:38.693Z,79.40
2022-07-29T16:51:24.626Z,79.70
2022-07-29T16:54:10.714Z,79.10
2022-07-29T16:56:56.341Z,79.70
2022-07-29T16:59:43.409Z,81.00
2022-07-29T17:02:29.247Z,80.40
2022-07-29T17:05:15.711Z,81.50
2022-07-29T17:08:00.832Z,81.60
2022-07-29T17:10:46.403Z,82.30
2022-07-29T17:13:31.712Z,81.90
2022-07-29T17:16:17.355Z,81.90
2022-07-29T17:19:03.341Z,82.40
2022-07-29T17:21:49.344Z,82.00
2022-07-29T17:24:35.374Z,84.40
2022-07-29T17:27:21.006Z,87.40
2022-07-29T17:30:07.150Z,88.80
2022-07-29T17:32:52.603Z,88.20
2022-07-29T17:35:56.497Z,85.00
2022-07-29T17:38:41.792Z,83.90
2022-07-29T17:41:28.098Z,85.10
2022-07-29T17:44:13.639Z,84.00
2022-07-29T17:46:58.982Z,84.30
2022-07-29T17:49:45.625Z,83.80
2022-07-29T17:52:31.122Z,85.20
2022-07-29T17:55:16.601Z,86.40
2022-07-29T17:58:02.006Z,86.60
2022-07-29T18:00:48.377Z,84.70
2022-07-29T18:03:34.053Z,85.40
2022-07-29T18:06:19.966Z,88.50
2022-07-29T18:09:06.015Z,88.40
2022-07-29T18:11:51.714Z,88.70
2022-07-29T18:14:38.002Z,89.10
2022-07-29T18:17:52.913Z,88.70
2022-07-29T18:20:31.420Z,89.20
2022-07-29T18:23:16.979Z,87.50
2022-07-29T18:26:02.512Z,87.20
2022-07-29T18:28:48.562Z,85.00
2022-07-29T18:31:34.201Z,85.70
2022-07-29T18:34:19.772Z,86.50
2022-07-29T18:37:05.316Z,85.60
2022-07-29T18:39:50.627Z,88.60
2022-07-29T18:42:36.567Z,88.80
2022-07-29T18:45:22.348Z,85.60
2022-07-29T18:48:13.953Z,85.20
2022-07-29T18:50:59.652Z,88.00
2022-07-29T18:53:44.955Z,87.20
2022-07-29T18:56:30.877Z,88.00
2022-07-29T18:59:19.549Z,87.50
2022-07-29T19:02:04.992Z,87.70
2022-07-29T19:04:50.865Z,87.50
2022-07-29T19:07:36.994Z,88.40
2022-07-29T19:10:22.732Z,88.30
2022-07-29T19:13:08.678Z,88.30
2022-07-29T19:15:54.516Z,88.40
2022-07-29T19:18:40.354Z,89.00
2022-07-29T19:21:26.557Z,86.80
2022-07-29T19:24:15.432Z,89.10
2022-07-29T19:27:01.529Z,88.30
2022-07-29T19:29:46.904Z,88.80
2022-07-29T19:32:32.374Z,88.60
2022-07-29T19:35:32.879Z,88.90
2022-07-29T19:38:18.602Z,89.00
2022-07-29T19:41:04.043Z,89.00
2022-07-29T19:43:52.887Z,89.50
2022-07-29T19:46:38.840Z,90.20
2022-07-29T19:49:24.375Z,90.40
2022-07-29T19:52:10.908Z,90.30
2022-07-29T19:54:56.333Z,90.40
2022-07-29T19:57:42.721Z,90.40
2022-07-29T20:00:28.507Z,90.40
2022-07-29T20:03:15.325Z,90.30
2022-07-29T20:06:00.813Z,90.70
2022-07-29T20:08:46.261Z,90.50
2022-07-29T20:11:36.545Z,90.10
2022-07-29T20:14:23.125Z,90.20
2022-07-29T20:17:08.275Z,89.20
2022-07-29T20:19:54.003Z,90.00
2022-07-29T20:22:40.995Z,89.40
2022-07-29T20:25:26.310Z,90.10
2022-07-29T20:28:11.700Z,90.20
2022-07-29T20:30:57.100Z,90.30
2022-07-29T20:33:46.004Z,90.10
2022-07-29T20:36:32.108Z,90.30
2022-07-29T20:39:17.538Z,90.60
2022-07-29T20:42:03.301Z,91.00
2022-07-29T20:44:50.655Z,90.70
2022-07-29T20:47:35.911Z,90.20
2022-07-29T20:50:23.622Z,90.50
2022-07-29T20:53:09.430Z,91.10
2022-07-29T20:55:55.006Z,91.30
2022-07-29T20:58:40.880Z,90.80
2022-07-29T21:01:26.100Z,90.80
2022-07-29T21:04:11.379Z,91.20
2022-07-29T21:06:57.053Z,91.10
2022-07-29T21:09:42.747Z,91.30
2022-07-29T21:12:30.126Z,91.50
2022-07-29T21:15:16.301Z,91.00
2022-07-29T21:18:06.063Z,91.80
2022-07-29T21:20:51.719Z,91.80
2022-07-29T21:23:37.311Z,92.00
2022-07-29T21:26:22.684Z,92.10
2022-07-29T21:29:08.056Z,92.20
2022-07-29T21:31:53.450Z,91.90
2022-07-29T21:34:38.904Z,92.20
2022-07-29T21:37:27.023Z,92.70
2022-07-29T21:40:12.909Z,92.20
2022-07-29T21:42:58.106Z,92.30
2022-07-29T21:45:44.100Z,92.00
2022-07-29T21:48:29.769Z,92.50
2022-07-29T21:51:15.138Z,92.20
2022-07-29T21:54:00.510Z,92.40
2022-07-29T21:56:51.256Z,92.20
2022-07-29T21:59:37.082Z,92.30
2022-07-29T22:02:22.526Z,92.10
2022-07-29T22:05:08.539Z,92.40
2022-07-29T22:07:56.344Z,92.20
2022-07-29T22:10:42.793Z,92.60
2022-07-29T22:13:28.041Z,92.20
2022-07-29T22:16:15.013Z,92.00
2022-07-29T22:19:00.279Z,92.10
2022-07-29T22:21:47.130Z,92.20
2022-07-29T22:24:32.426Z,92.30
2022-07-29T22:27:17.722Z,92.00
2022-07-29T22:30:05.170Z,92.50
2022-07-29T22:32:50.282Z,92.20
2022-07-29T22:35:35.644Z,92.30
2022-07-29T22:38:21.046Z,92.20
2022-07-29T22:41:06.416Z,92.30
2022-07-29T22:43:51.728Z,92.30
2022-07-29T22:46:37.257Z,92.30
2022-07-29T22:49:22.929Z,92.30
2022-07-29T22:52:09.043Z,92.50
2022-07-29T22:54:54.316Z,92.60
2022-07-29T22:57:39.730Z,92.20
2022-07-29T23:00:25.769Z,92.10
2022-07-29T23:03:11.058Z,92.30
2022-07-29T23:05:56.513Z,92.40
2022-07-29T23:08:41.826Z,92.20
2022-07-29T23:11:27.406Z,92.80
2022-07-29T23:14:12.879Z,92.60
2022-07-29T23:16:58.724Z,92.50
2022-07-29T23:19:44.293Z,92.10
2022-07-29T23:22:30.130Z,92.40
2022-07-29T23:25:15.498Z,92.30
2022-07-29T23:28:01.121Z,92.70
2022-07-29T23:30:46.123Z,92.80
2022-07-29T23:33:31.488Z,93.10
2022-07-29T23:36:16.863Z,92.10
2022-07-29T23:39:02.399Z,92.50
2022-07-29T23:41:47.747Z,92.70
2022-07-29T23:44:33.142Z,92.50
2022-07-29T23:47:18.620Z,92.80
2022-07-29T23:50:05.390Z,92.90
2022-07-29T23:52:50.437Z,92.70
2022-07-29T23:55:39.047Z,92.50
2022-07-29T23:58:24.725Z,92.80
